sensor_id;sensor_type;location;lat;lon;timestamp;temperature;humidity
20147;DHT22;10234;50.856;15.716;2022-08-21T00:01:17;15.60;99.90
20147;DHT22;10234;50.856;15.716;2022-08-21T00:03:47;15.40;99.90
20147;DHT22;10234;50.856;15.716;2022-08-21T00:06:14;15.70;99.90
20147;DHT22;10234;50.856;15.716;2022-08-21T00:08:41;15.70;99.90
20147;DHT22;10234;50.856;15.716;2022-08-21T00:11:08;15.70;99.90
20147;DHT22;10234;50.856;15.716;2022-08-21T00:13:36;15.60;99.90
20147;DHT22;10234;50.856;15.716;2022-08-21T00:16:04;15.60;99.90
20147;DHT22;10234;50.856;15.716;2022-08-21T00:18:31;15.70;99.90
20147;DHT22;10234;50.856;15.716;2022-08-21T00:21:01;15.60;99.90
20147;DHT22;10234;50.856;15.716;2022-08-21T00:23:28;15.60;99.90
20147;DHT22;10234;50.856;15.716;2022-08-21T00:25:55;15.60;99.90
20147;DHT22;10234;50.856;15.716;2022-08-21T00:28:22;15.50;99.90
20147;DHT22;10234;50.856;15.716;2022-08-21T00:33:16;15.60;99.90
20147;DHT22;10234;50.856;15.716;2022-08-21T00:35:43;15.60;99.90
20147;DHT22;10234;50.856;15.716;2022-08-21T00:38:12;15.60;99.90
20147;DHT22;10234;50.856;15.716;2022-08-21T00:40:43;15.60;99.90
20147;DHT22;10234;50.856;15.716;2022-08-21T00:43:13;15.40;99.90
20147;DHT22;10234;50.856;15.716;2022-08-21T00:45:40;15.60;99.90
20147;DHT22;10234;50.856;15.716;2022-08-21T00:48:08;15.60;99.90
20147;DHT22;10234;50.856;15.716;2022-08-21T00:50:39;15.60;99.90
20147;DHT22;10234;50.856;15.716;2022-08-21T00:53:08;15.60;99.90
20147;DHT22;10234;50.856;15.716;2022-08-21T00:55:38;15.70;99.90
20147;DHT22;10234;50.856;15.716;2022-08-21T00:58:06;15.70;99.90
20147;DHT22;10234;50.856;15.716;2022-08-21T01:00:37;15.60;99.90
20147;DHT22;10234;50.856;15.716;2022-08-21T01:03:07;15.60;99.90
20147;DHT22;10234;50.856;15.716;2022-08-21T01:05:35;15.60;99.90
20147;DHT22;10234;50.856;15.716;2022-08-21T01:08:03;15.60;99.90
20147;DHT22;10234;50.856;15.716;2022-08-21T01:10:31;15.60;99.90
20147;DHT22;10234;50.856;15.716;2022-08-21T01:12:59;15.40;99.90
20147;DHT22;10234;50.856;15.716;2022-08-21T01:15:31;15.60;99.90
20147;DHT22;10234;50.856;15.716;2022-08-21T01:17:58;15.60;99.90
20147;DHT22;10234;50.856;15.716;2022-08-21T01:20:26;15.60;99.90
20147;DHT22;10234;50.856;15.716;2022-08-21T01:22:54;15.60;99.90
20147;DHT22;10234;50.856;15.716;2022-08-21T01:25:21;15.60;99.90
20147;DHT22;10234;50.856;15.716;2022-08-21T01:27:49;15.60;99.90
20147;DHT22;10234;50.856;15.716;2022-08-21T01:30:20;15.70;99.90
20147;DHT22;10234;50.856;15.716;2022-08-21T01:32:48;15.60;99.90
20147;DHT22;10234;50.856;15.716;2022-08-21T01:35:17;15.60;99.90
20147;DHT22;10234;50.856;15.716;2022-08-21T01:37:48;15.60;99.90
20147;DHT22;10234;50.856;15.716;2022-08-21T01:40:17;15.70;99.90
20147;DHT22;10234;50.856;15.716;2022-08-21T01:42:45;15.60;99.90
20147;DHT22;10234;50.856;15.716;2022-08-21T01:45:12;15.60;99.90
20147;DHT22;10234;50.856;15.716;2022-08-21T01:47:42;15.60;99.90
20147;DHT22;10234;50.856;15.716;2022-08-21T01:50:12;15.60;99.90
20147;DHT22;10234;50.856;15.716;2022-08-21T01:52:39;15.70;99.90
20147;DHT22;10234;50.856;15.716;2022-08-21T01:55:08;15.50;99.90
20147;DHT22;10234;50.856;15.716;2022-08-21T01:57:36;15.60;99.90
20147;DHT22;10234;50.856;15.716;2022-08-21T02:00:06;15.40;99.90
20147;DHT22;10234;50.856;15.716;2022-08-21T02:02:33;15.60;99.90
20147;DHT22;10234;50.856;15.716;2022-08-21T02:05:00;15.60;99.90
20147;DHT22;10234;50.856;15.716;2022-08-21T02:07:27;15.60;99.90
20147;DHT22;10234;50.856;15.716;2022-08-21T02:09:54;15.60;99.90
20147;DHT22;10234;50.856;15.716;2022-08-21T02:12:21;15.60;99.90
20147;DHT22;10234;50.856;15.716;2022-08-21T02:14:49;15.60;99.90
20147;DHT22;10234;50.856;15.716;2022-08-21T02:17:16;15.60;99.90
20147;DHT22;10234;50.856;15.716;2022-08-21T02:19:42;15.50;99.90
20147;DHT22;10234;50.856;15.716;2022-08-21T02:22:09;15.60;99.90
20147;DHT22;10234;50.856;15.716;2022-08-21T02:24:37;15.60;99.90
20147;DHT22;10234;50.856;15.716;2022-08-21T02:27:04;15.60;99.90
20147;DHT22;10234;50.856;15.716;2022-08-21T02:29:31;15.60;99.90
20147;DHT22;10234;50.856;15.716;2022-08-21T02:31:59;15.60;99.90
20147;DHT22;10234;50.856;15.716;2022-08-21T02:34:26;15.60;99.90
20147;DHT22;10234;50.856;15.716;2022-08-21T02:36:52;15.70;99.90
20147;DHT22;10234;50.856;15.716;2022-08-21T02:39:19;15.70;99.90
20147;DHT22;10234;50.856;15.716;2022-08-21T02:41:46;15.70;99.90
20147;DHT22;10234;50.856;15.716;2022-08-21T02:44:13;15.70;99.90
20147;DHT22;10234;50.856;15.716;2022-08-21T02:46:40;15.70;99.90
20147;DHT22;10234;50.856;15.716;2022-08-21T02:49:08;15.60;99.90
20147;DHT22;10234;50.856;15.716;2022-08-21T02:51:35;15.60;99.90
20147;DHT22;10234;50.856;15.716;2022-08-21T02:54:02;15.60;99.90
20147;DHT22;10234;50.856;15.716;2022-08-21T02:56:29;15.60;99.90
20147;DHT22;10234;50.856;15.716;2022-08-21T02:58:55;15.70;99.90
20147;DHT22;10234;50.856;15.716;2022-08-21T03:01:22;15.30;99.90
20147;DHT22;10234;50.856;15.716;2022-08-21T03:03:49;15.50;99.90
20147;DHT22;10234;50.856;15.716;2022-08-21T03:06:19;15.50;99.90
20147;DHT22;10234;50.856;15.716;2022-08-21T03:08:47;15.40;99.90
20147;DHT22;10234;50.856;15.716;2022-08-21T03:11:14;15.40;99.90
20147;DHT22;10234;50.856;15.716;2022-08-21T03:13:41;15.40;99.90
20147;DHT22;10234;50.856;15.716;2022-08-21T03:16:09;15.30;99.90
20147;DHT22;10234;50.856;15.716;2022-08-21T03:18:36;15.30;99.90
20147;DHT22;10234;50.856;15.716;2022-08-21T03:21:03;15.30;99.90
20147;DHT22;10234;50.856;15.716;2022-08-21T03:23:32;15.40;99.90
20147;DHT22;10234;50.856;15.716;2022-08-21T03:26:00;15.30;99.90
20147;DHT22;10234;50.856;15.716;2022-08-21T03:28:26;15.30;99.90
20147;DHT22;10234;50.856;15.716;2022-08-21T03:30:53;15.30;99.90
20147;DHT22;10234;50.856;15.716;2022-08-21T03:33:21;15.30;99.90
20147;DHT22;10234;50.856;15.716;2022-08-21T03:35:53;15.30;99.90
20147;DHT22;10234;50.856;15.716;2022-08-21T03:38:21;15.30;99.90
20147;DHT22;10234;50.856;15.716;2022-08-21T03:40:49;15.30;99.90
20147;DHT22;10234;50.856;15.716;2022-08-21T03:43:16;15.30;99.90
20147;DHT22;10234;50.856;15.716;2022-08-21T03:45:43;15.30;99.90
20147;DHT22;10234;50.856;15.716;2022-08-21T03:48:10;15.20;99.90
20147;DHT22;10234;50.856;15.716;2022-08-21T03:50:39;15.10;99.90
20147;DHT22;10234;50.856;15.716;2022-08-21T03:53:07;15.00;99.90
20147;DHT22;10234;50.856;15.716;2022-08-21T03:55:34;15.20;99.90
20147;DHT22;10234;50.856;15.716;2022-08-21T03:58:02;15.20;99.90
20147;DHT22;10234;50.856;15.716;2022-08-21T04:00:29;15.30;99.90
20147;DHT22;10234;50.856;15.716;2022-08-21T04:05:23;15.20;99.90
20147;DHT22;10234;50.856;15.716;2022-08-21T04:07:58;15.30;99.90
20147;DHT22;10234;50.856;15.716;2022-08-21T04:10:26;15.60;99.90
20147;DHT22;10234;50.856;15.716;2022-08-21T04:12:54;15.30;99.90
20147;DHT22;10234;50.856;15.716;2022-08-21T04:15:24;15.30;99.90
20147;DHT22;10234;50.856;15.716;2022-08-21T04:17:51;15.20;99.90
20147;DHT22;10234;50.856;15.716;2022-08-21T04:20:18;15.20;99.90
20147;DHT22;10234;50.856;15.716;2022-08-21T04:22:47;15.20;99.90
20147;DHT22;10234;50.856;15.716;2022-08-21T04:25:15;15.20;99.90
20147;DHT22;10234;50.856;15.716;2022-08-21T04:27:42;15.20;99.90
20147;DHT22;10234;50.856;15.716;2022-08-21T04:30:12;15.20;99.90
20147;DHT22;10234;50.856;15.716;2022-08-21T04:32:44;15.20;99.90
20147;DHT22;10234;50.856;15.716;2022-08-21T04:35:14;15.20;99.90
20147;DHT22;10234;50.856;15.716;2022-08-21T04:37:41;15.20;99.90
20147;DHT22;10234;50.856;15.716;2022-08-21T04:40:10;15.20;99.90
20147;DHT22;10234;50.856;15.716;2022-08-21T04:42:42;15.20;99.90
20147;DHT22;10234;50.856;15.716;2022-08-21T04:45:16;15.30;99.90
20147;DHT22;10234;50.856;15.716;2022-08-21T04:47:47;15.30;99.90
20147;DHT22;10234;50.856;15.716;2022-08-21T04:50:14;15.20;99.90
20147;DHT22;10234;50.856;15.716;2022-08-21T04:52:41;15.20;99.90
20147;DHT22;10234;50.856;15.716;2022-08-21T04:55:08;15.20;99.90
20147;DHT22;10234;50.856;15.716;2022-08-21T04:57:35;15.20;99.90
20147;DHT22;10234;50.856;15.716;2022-08-21T05:00:04;15.20;99.90
20147;DHT22;10234;50.856;15.716;2022-08-21T05:02:32;15.20;99.90
20147;DHT22;10234;50.856;15.716;2022-08-21T05:05:00;15.20;99.90
20147;DHT22;10234;50.856;15.716;2022-08-21T05:07:29;15.30;99.90
20147;DHT22;10234;50.856;15.716;2022-08-21T05:09:58;15.30;99.90
20147;DHT22;10234;50.856;15.716;2022-08-21T05:12:25;15.30;99.90
20147;DHT22;10234;50.856;15.716;2022-08-21T05:14:52;15.30;99.90
20147;DHT22;10234;50.856;15.716;2022-08-21T05:17:19;15.40;99.90
20147;DHT22;10234;50.856;15.716;2022-08-21T05:19:46;15.30;99.90
20147;DHT22;10234;50.856;15.716;2022-08-21T05:22:20;15.30;99.90
20147;DHT22;10234;50.856;15.716;2022-08-21T05:24:47;15.40;99.90
20147;DHT22;10234;50.856;15.716;2022-08-21T05:27:14;15.40;99.90
20147;DHT22;10234;50.856;15.716;2022-08-21T05:29:40;15.40;99.90
20147;DHT22;10234;50.856;15.716;2022-08-21T05:32:09;15.30;99.90
20147;DHT22;10234;50.856;15.716;2022-08-21T05:34:36;15.30;99.90
20147;DHT22;10234;50.856;15.716;2022-08-21T05:37:03;15.30;99.90
20147;DHT22;10234;50.856;15.716;2022-08-21T05:39:32;15.10;99.90
20147;DHT22;10234;50.856;15.716;2022-08-21T05:41:58;15.30;99.90
20147;DHT22;10234;50.856;15.716;2022-08-21T05:44:25;15.30;99.90
20147;DHT22;10234;50.856;15.716;2022-08-21T05:46:52;15.30;99.90
20147;DHT22;10234;50.856;15.716;2022-08-21T05:49:19;15.20;99.90
20147;DHT22;10234;50.856;15.716;2022-08-21T05:51:46;15.20;99.90
20147;DHT22;10234;50.856;15.716;2022-08-21T05:54:13;15.20;99.90
20147;DHT22;10234;50.856;15.716;2022-08-21T05:56:41;15.20;99.90
20147;DHT22;10234;50.856;15.716;2022-08-21T05:59:10;15.20;99.90
20147;DHT22;10234;50.856;15.716;2022-08-21T06:01:38;15.10;99.90
20147;DHT22;10234;50.856;15.716;2022-08-21T06:04:06;15.20;99.90
20147;DHT22;10234;50.856;15.716;2022-08-21T06:06:32;15.30;99.90
20147;DHT22;10234;50.856;15.716;2022-08-21T06:08:59;15.10;99.90
20147;DHT22;10234;50.856;15.716;2022-08-21T06:11:26;15.10;99.90
20147;DHT22;10234;50.856;15.716;2022-08-21T06:13:55;15.10;99.90
20147;DHT22;10234;50.856;15.716;2022-08-21T06:16:22;15.10;99.90
20147;DHT22;10234;50.856;15.716;2022-08-21T06:18:49;15.10;99.90
20147;DHT22;10234;50.856;15.716;2022-08-21T06:21:16;15.10;99.90
20147;DHT22;10234;50.856;15.716;2022-08-21T06:23:43;15.20;99.90
20147;DHT22;10234;50.856;15.716;2022-08-21T06:26:12;15.00;99.90
20147;DHT22;10234;50.856;15.716;2022-08-21T06:28:40;15.00;99.90
20147;DHT22;10234;50.856;15.716;2022-08-21T06:31:12;15.00;99.90
20147;DHT22;10234;50.856;15.716;2022-08-21T06:33:40;15.00;99.90
20147;DHT22;10234;50.856;15.716;2022-08-21T06:36:07;15.00;99.90
20147;DHT22;10234;50.856;15.716;2022-08-21T06:38:35;15.00;99.90
20147;DHT22;10234;50.856;15.716;2022-08-21T06:41:01;15.00;99.90
20147;DHT22;10234;50.856;15.716;2022-08-21T06:43:28;14.90;99.90
20147;DHT22;10234;50.856;15.716;2022-08-21T06:45:55;15.40;99.90
20147;DHT22;10234;50.856;15.716;2022-08-21T06:48:24;14.90;99.90
20147;DHT22;10234;50.856;15.716;2022-08-21T06:50:51;14.90;99.90
20147;DHT22;10234;50.856;15.716;2022-08-21T06:53:19;14.90;99.90
20147;DHT22;10234;50.856;15.716;2022-08-21T06:55:48;15.20;99.90
20147;DHT22;10234;50.856;15.716;2022-08-21T06:58:15;14.90;99.90
20147;DHT22;10234;50.856;15.716;2022-08-21T07:00:45;14.90;99.90
20147;DHT22;10234;50.856;15.716;2022-08-21T07:03:20;15.00;99.90
20147;DHT22;10234;50.856;15.716;2022-08-21T07:05:48;15.00;99.90
20147;DHT22;10234;50.856;15.716;2022-08-21T07:08:15;14.10;99.90
20147;DHT22;10234;50.856;15.716;2022-08-21T07:10:43;14.90;99.90
20147;DHT22;10234;50.856;15.716;2022-08-21T07:13:10;15.10;99.90
20147;DHT22;10234;50.856;15.716;2022-08-21T07:15:36;15.00;99.90
20147;DHT22;10234;50.856;15.716;2022-08-21T07:20:31;15.10;99.90
20147;DHT22;10234;50.856;15.716;2022-08-21T07:23:06;15.10;99.90
20147;DHT22;10234;50.856;15.716;2022-08-21T07:25:34;15.10;99.90
20147;DHT22;10234;50.856;15.716;2022-08-21T07:28:01;15.10;99.90
20147;DHT22;10234;50.856;15.716;2022-08-21T07:30:28;15.10;99.90
20147;DHT22;10234;50.856;15.716;2022-08-21T07:32:55;15.10;99.90
20147;DHT22;10234;50.856;15.716;2022-08-21T07:35:23;15.20;99.90
20147;DHT22;10234;50.856;15.716;2022-08-21T07:37:50;15.30;99.90
20147;DHT22;10234;50.856;15.716;2022-08-21T07:40:18;15.20;99.90
20147;DHT22;10234;50.856;15.716;2022-08-21T07:42:48;15.20;99.90
20147;DHT22;10234;50.856;15.716;2022-08-21T07:45:21;15.20;99.90
20147;DHT22;10234;50.856;15.716;2022-08-21T07:47:50;15.40;99.90
20147;DHT22;10234;50.856;15.716;2022-08-21T07:50:17;15.40;99.90
20147;DHT22;10234;50.856;15.716;2022-08-21T07:52:45;15.50;99.90
20147;DHT22;10234;50.856;15.716;2022-08-21T07:55:15;15.50;99.90
20147;DHT22;10234;50.856;15.716;2022-08-21T07:57:44;15.50;99.90
20147;DHT22;10234;50.856;15.716;2022-08-21T08:00:14;15.50;99.90
20147;DHT22;10234;50.856;15.716;2022-08-21T08:02:44;15.70;99.90
20147;DHT22;10234;50.856;15.716;2022-08-21T08:07:39;15.80;99.90
20147;DHT22;10234;50.856;15.716;2022-08-21T08:10:08;15.90;99.90
20147;DHT22;10234;50.856;15.716;2022-08-21T08:12:36;16.10;99.90
20147;DHT22;10234;50.856;15.716;2022-08-21T08:15:07;16.20;99.90
20147;DHT22;10234;50.856;15.716;2022-08-21T08:17:34;16.30;99.90
20147;DHT22;10234;50.856;15.716;2022-08-21T08:20:01;16.40;99.90
20147;DHT22;10234;50.856;15.716;2022-08-21T08:22:28;16.40;99.90
20147;DHT22;10234;50.856;15.716;2022-08-21T08:24:55;16.30;99.90
20147;DHT22;10234;50.856;15.716;2022-08-21T08:27:23;16.40;99.90
20147;DHT22;10234;50.856;15.716;2022-08-21T08:29:50;16.50;99.90
20147;DHT22;10234;50.856;15.716;2022-08-21T08:32:19;16.50;99.90
20147;DHT22;10234;50.856;15.716;2022-08-21T08:34:48;16.40;99.90
20147;DHT22;10234;50.856;15.716;2022-08-21T08:37:17;16.50;99.90
20147;DHT22;10234;50.856;15.716;2022-08-21T08:39:44;16.70;99.90
20147;DHT22;10234;50.856;15.716;2022-08-21T08:42:13;16.90;99.90
20147;DHT22;10234;50.856;15.716;2022-08-21T08:44:42;16.70;99.90
20147;DHT22;10234;50.856;15.716;2022-08-21T08:47:10;16.80;99.90
20147;DHT22;10234;50.856;15.716;2022-08-21T08:49:46;16.80;99.90
20147;DHT22;10234;50.856;15.716;2022-08-21T08:52:20;16.80;99.90
20147;DHT22;10234;50.856;15.716;2022-08-21T08:54:51;16.70;99.90
20147;DHT22;10234;50.856;15.716;2022-08-21T08:57:21;16.70;99.90
20147;DHT22;10234;50.856;15.716;2022-08-21T08:59:50;16.90;99.90
20147;DHT22;10234;50.856;15.716;2022-08-21T09:02:18;16.90;99.90
20147;DHT22;10234;50.856;15.716;2022-08-21T09:04:47;17.00;99.90
20147;DHT22;10234;50.856;15.716;2022-08-21T09:07:19;16.90;99.90
20147;DHT22;10234;50.856;15.716;2022-08-21T09:10:04;17.00;99.90
20147;DHT22;10234;50.856;15.716;2022-08-21T09:12:39;17.10;99.90
20147;DHT22;10234;50.856;15.716;2022-08-21T09:15:13;17.10;99.90
20147;DHT22;10234;50.856;15.716;2022-08-21T09:17:55;17.10;99.90
20147;DHT22;10234;50.856;15.716;2022-08-21T09:20:36;17.10;99.90
20147;DHT22;10234;50.856;15.716;2022-08-21T09:23:11;17.20;99.90
20147;DHT22;10234;50.856;15.716;2022-08-21T09:25:46;17.30;99.90
20147;DHT22;10234;50.856;15.716;2022-08-21T09:28:16;17.50;99.90
20147;DHT22;10234;50.856;15.716;2022-08-21T09:30:43;17.90;99.90
20147;DHT22;10234;50.856;15.716;2022-08-21T09:33:11;17.70;99.90
20147;DHT22;10234;50.856;15.716;2022-08-21T09:35:50;18.00;99.90
20147;DHT22;10234;50.856;15.716;2022-08-21T09:38:27;18.20;99.90
20147;DHT22;10234;50.856;15.716;2022-08-21T09:41:01;18.30;99.90
20147;DHT22;10234;50.856;15.716;2022-08-21T09:43:29;18.50;99.90
20147;DHT22;10234;50.856;15.716;2022-08-21T09:46:20;18.60;99.90
20147;DHT22;10234;50.856;15.716;2022-08-21T09:48:49;18.90;99.90
20147;DHT22;10234;50.856;15.716;2022-08-21T09:51:20;19.00;99.90
20147;DHT22;10234;50.856;15.716;2022-08-21T09:53:51;19.20;99.90
20147;DHT22;10234;50.856;15.716;2022-08-21T09:56:27;19.30;99.90
20147;DHT22;10234;50.856;15.716;2022-08-21T09:59:17;19.50;99.90
20147;DHT22;10234;50.856;15.716;2022-08-21T10:01:47;19.70;99.90
20147;DHT22;10234;50.856;15.716;2022-08-21T10:04:18;20.00;99.90
20147;DHT22;10234;50.856;15.716;2022-08-21T10:06:47;20.00;99.90
20147;DHT22;10234;50.856;15.716;2022-08-21T10:09:15;20.30;99.90
20147;DHT22;10234;50.856;15.716;2022-08-21T10:11:48;20.40;99.90
20147;DHT22;10234;50.856;15.716;2022-08-21T10:14:25;20.50;99.90
20147;DHT22;10234;50.856;15.716;2022-08-21T10:17:02;20.10;99.90
20147;DHT22;10234;50.856;15.716;2022-08-21T10:19:36;20.20;99.90
20147;DHT22;10234;50.856;15.716;2022-08-21T10:22:17;20.50;99.90
20147;DHT22;10234;50.856;15.716;2022-08-21T10:24:52;20.40;99.90
20147;DHT22;10234;50.856;15.716;2022-08-21T10:27:30;20.80;99.90
20147;DHT22;10234;50.856;15.716;2022-08-21T10:30:03;21.20;99.90
20147;DHT22;10234;50.856;15.716;2022-08-21T10:32:49;21.30;99.90
20147;DHT22;10234;50.856;15.716;2022-08-21T10:35:22;21.20;99.90
20147;DHT22;10234;50.856;15.716;2022-08-21T10:38:16;19.00;99.90
20147;DHT22;10234;50.856;15.716;2022-08-21T10:40:54;22.00;99.90
20147;DHT22;10234;50.856;15.716;2022-08-21T10:43:30;22.20;99.90
20147;DHT22;10234;50.856;15.716;2022-08-21T10:46:09;22.40;99.90
20147;DHT22;10234;50.856;15.716;2022-08-21T10:48:40;22.60;99.90
20147;DHT22;10234;50.856;15.716;2022-08-21T10:51:12;23.00;99.90
20147;DHT22;10234;50.856;15.716;2022-08-21T10:53:51;22.80;99.90
20147;DHT22;10234;50.856;15.716;2022-08-21T10:56:22;23.00;99.90
20147;DHT22;10234;50.856;15.716;2022-08-21T10:59:09;22.90;99.90
20147;DHT22;10234;50.856;15.716;2022-08-21T11:01:46;22.90;99.90
20147;DHT22;10234;50.856;15.716;2022-08-21T11:04:20;22.70;99.90
20147;DHT22;10234;50.856;15.716;2022-08-21T11:06:53;22.30;99.90
20147;DHT22;10234;50.856;15.716;2022-08-21T11:09:25;22.20;99.90
20147;DHT22;10234;50.856;15.716;2022-08-21T11:11:57;22.00;99.90
20147;DHT22;10234;50.856;15.716;2022-08-21T11:14:34;21.80;99.90
20147;DHT22;10234;50.856;15.716;2022-08-21T11:17:07;21.60;99.90
20147;DHT22;10234;50.856;15.716;2022-08-21T11:19:40;21.80;99.90
20147;DHT22;10234;50.856;15.716;2022-08-21T11:22:21;21.70;99.90
20147;DHT22;10234;50.856;15.716;2022-08-21T11:24:59;21.60;99.90
20147;DHT22;10234;50.856;15.716;2022-08-21T11:27:33;21.50;99.90
20147;DHT22;10234;50.856;15.716;2022-08-21T11:30:03;21.60;99.90
20147;DHT22;10234;50.856;15.716;2022-08-21T11:35:31;21.70;99.90
20147;DHT22;10234;50.856;15.716;2022-08-21T11:38:11;21.90;99.90
20147;DHT22;10234;50.856;15.716;2022-08-21T11:40:59;22.20;99.90
20147;DHT22;10234;50.856;15.716;2022-08-21T11:43:36;22.30;99.90
20147;DHT22;10234;50.856;15.716;2022-08-21T11:46:14;22.40;99.90
20147;DHT22;10234;50.856;15.716;2022-08-21T11:48:48;22.20;99.90
20147;DHT22;10234;50.856;15.716;2022-08-21T11:51:35;22.60;99.90
20147;DHT22;10234;50.856;15.716;2022-08-21T11:54:05;22.50;99.90
20147;DHT22;10234;50.856;15.716;2022-08-21T11:56:38;22.50;99.90
20147;DHT22;10234;50.856;15.716;2022-08-21T11:59:11;22.50;99.90
20147;DHT22;10234;50.856;15.716;2022-08-21T12:01:43;22.60;99.90
20147;DHT22;10234;50.856;15.716;2022-08-21T12:04:18;22.70;99.90
20147;DHT22;10234;50.856;15.716;2022-08-21T12:06:48;22.80;99.90
20147;DHT22;10234;50.856;15.716;2022-08-21T12:09:30;23.00;99.90
20147;DHT22;10234;50.856;15.716;2022-08-21T12:12:06;22.60;99.90
20147;DHT22;10234;50.856;15.716;2022-08-21T12:14:38;22.70;99.90
20147;DHT22;10234;50.856;15.716;2022-08-21T12:17:07;22.90;99.90
20147;DHT22;10234;50.856;15.716;2022-08-21T12:19:34;22.80;99.90
20147;DHT22;10234;50.856;15.716;2022-08-21T12:22:10;22.80;99.90
20147;DHT22;10234;50.856;15.716;2022-08-21T12:24:39;22.60;99.90
20147;DHT22;10234;50.856;15.716;2022-08-21T12:27:21;22.60;99.90
20147;DHT22;10234;50.856;15.716;2022-08-21T12:29:52;22.30;99.90
20147;DHT22;10234;50.856;15.716;2022-08-21T12:32:25;22.20;99.90
20147;DHT22;10234;50.856;15.716;2022-08-21T12:34:55;22.00;99.90
20147;DHT22;10234;50.856;15.716;2022-08-21T12:37:31;21.90;99.90
20147;DHT22;10234;50.856;15.716;2022-08-21T12:40:01;21.80;99.90
20147;DHT22;10234;50.856;15.716;2022-08-21T12:42:38;21.60;99.90
20147;DHT22;10234;50.856;15.716;2022-08-21T12:45:17;21.40;99.90
20147;DHT22;10234;50.856;15.716;2022-08-21T12:47:48;21.40;99.90
20147;DHT22;10234;50.856;15.716;2022-08-21T12:50:20;21.30;99.90
20147;DHT22;10234;50.856;15.716;2022-08-21T12:52:54;21.20;99.90
20147;DHT22;10234;50.856;15.716;2022-08-21T12:55:27;21.20;99.90
20147;DHT22;10234;50.856;15.716;2022-08-21T12:57:56;21.10;99.90
20147;DHT22;10234;50.856;15.716;2022-08-21T13:00:25;21.10;99.90
20147;DHT22;10234;50.856;15.716;2022-08-21T13:02:53;21.10;99.90
20147;DHT22;10234;50.856;15.716;2022-08-21T13:05:29;21.00;99.90
20147;DHT22;10234;50.856;15.716;2022-08-21T13:07:58;21.00;99.90
20147;DHT22;10234;50.856;15.716;2022-08-21T13:10:28;20.90;99.90
20147;DHT22;10234;50.856;15.716;2022-08-21T13:12:58;20.90;99.90
20147;DHT22;10234;50.856;15.716;2022-08-21T13:15:29;21.10;99.90
20147;DHT22;10234;50.856;15.716;2022-08-21T13:17:57;21.10;99.90
20147;DHT22;10234;50.856;15.716;2022-08-21T13:20:30;21.20;99.90
20147;DHT22;10234;50.856;15.716;2022-08-21T13:22:57;21.30;99.90
20147;DHT22;10234;50.856;15.716;2022-08-21T13:25:28;21.30;99.90
20147;DHT22;10234;50.856;15.716;2022-08-21T13:28:05;21.20;99.90
20147;DHT22;10234;50.856;15.716;2022-08-21T13:30:32;21.40;99.90
20147;DHT22;10234;50.856;15.716;2022-08-21T13:33:02;21.30;99.90
20147;DHT22;10234;50.856;15.716;2022-08-21T13:35:46;21.00;99.90
20147;DHT22;10234;50.856;15.716;2022-08-21T13:38:13;20.60;99.90
20147;DHT22;10234;50.856;15.716;2022-08-21T13:40:44;20.70;99.90
20147;DHT22;10234;50.856;15.716;2022-08-21T13:43:17;20.70;99.90
20147;DHT22;10234;50.856;15.716;2022-08-21T13:45:48;20.80;99.90
20147;DHT22;10234;50.856;15.716;2022-08-21T13:48:15;20.80;99.90
20147;DHT22;10234;50.856;15.716;2022-08-21T13:50:43;20.70;99.90
20147;DHT22;10234;50.856;15.716;2022-08-21T13:53:21;20.60;99.90
20147;DHT22;10234;50.856;15.716;2022-08-21T13:55:49;20.30;99.90
20147;DHT22;10234;50.856;15.716;2022-08-21T13:58:25;20.40;99.90
20147;DHT22;10234;50.856;15.716;2022-08-21T14:00:54;19.70;99.90
20147;DHT22;10234;50.856;15.716;2022-08-21T14:03:32;20.20;99.90
20147;DHT22;10234;50.856;15.716;2022-08-21T14:06:00;20.20;99.90
20147;DHT22;10234;50.856;15.716;2022-08-21T14:08:31;20.20;99.90
20147;DHT22;10234;50.856;15.716;2022-08-21T14:11:00;20.20;99.90
20147;DHT22;10234;50.856;15.716;2022-08-21T14:13:38;20.10;99.90
20147;DHT22;10234;50.856;15.716;2022-08-21T14:16:17;20.10;99.90
20147;DHT22;10234;50.856;15.716;2022-08-21T14:18:46;20.00;99.90
20147;DHT22;10234;50.856;15.716;2022-08-21T14:21:13;20.00;99.90
20147;DHT22;10234;50.856;15.716;2022-08-21T14:24:04;20.00;99.90
20147;DHT22;10234;50.856;15.716;2022-08-21T14:26:34;20.00;99.90
20147;DHT22;10234;50.856;15.716;2022-08-21T14:29:07;19.80;99.90
20147;DHT22;10234;50.856;15.716;2022-08-21T14:31:35;19.70;99.90
20147;DHT22;10234;50.856;15.716;2022-08-21T14:34:02;19.80;99.90
20147;DHT22;10234;50.856;15.716;2022-08-21T14:36:29;19.70;99.90
20147;DHT22;10234;50.856;15.716;2022-08-21T14:38:56;19.70;99.90
20147;DHT22;10234;50.856;15.716;2022-08-21T14:41:25;19.60;99.90
20147;DHT22;10234;50.856;15.716;2022-08-21T14:43:53;19.50;99.90
20147;DHT22;10234;50.856;15.716;2022-08-21T14:46:24;19.30;99.90
20147;DHT22;10234;50.856;15.716;2022-08-21T14:48:52;19.20;99.90
20147;DHT22;10234;50.856;15.716;2022-08-21T14:51:19;19.00;99.90
20147;DHT22;10234;50.856;15.716;2022-08-21T14:53:46;18.70;99.90
20147;DHT22;10234;50.856;15.716;2022-08-21T14:56:14;18.60;99.90
20147;DHT22;10234;50.856;15.716;2022-08-21T14:58:44;18.40;99.90
20147;DHT22;10234;50.856;15.716;2022-08-21T15:01:13;18.30;99.90
20147;DHT22;10234;50.856;15.716;2022-08-21T15:03:42;17.80;99.90
20147;DHT22;10234;50.856;15.716;2022-08-21T15:06:09;17.90;99.90
20147;DHT22;10234;50.856;15.716;2022-08-21T15:08:36;17.80;99.90
20147;DHT22;10234;50.856;15.716;2022-08-21T15:11:05;17.70;99.90
20147;DHT22;10234;50.856;15.716;2022-08-21T15:13:32;16.30;99.90
20147;DHT22;10234;50.856;15.716;2022-08-21T15:15:59;17.80;99.90
20147;DHT22;10234;50.856;15.716;2022-08-21T15:18:28;17.80;99.90
20147;DHT22;10234;50.856;15.716;2022-08-21T15:20:57;17.80;99.90
20147;DHT22;10234;50.856;15.716;2022-08-21T15:23:24;17.70;99.90
20147;DHT22;10234;50.856;15.716;2022-08-21T15:25:52;17.70;99.90
20147;DHT22;10234;50.856;15.716;2022-08-21T15:28:20;17.60;99.90
20147;DHT22;10234;50.856;15.716;2022-08-21T15:33:14;17.60;99.90
20147;DHT22;10234;50.856;15.716;2022-08-21T15:35:41;17.60;99.90
20147;DHT22;10234;50.856;15.716;2022-08-21T15:38:09;17.60;99.90
20147;DHT22;10234;50.856;15.716;2022-08-21T15:40:37;17.60;99.90
20147;DHT22;10234;50.856;15.716;2022-08-21T15:43:05;17.60;99.90
20147;DHT22;10234;50.856;15.716;2022-08-21T15:45:33;17.30;99.90
20147;DHT22;10234;50.856;15.716;2022-08-21T15:48:00;17.40;99.90